sensor_id;sensor_type;location;lat;lon;timestamp;pressure;altitude;pressure_sealevel;temperature;humidity
54816;BME280;40715;55.752;37.884;2023-04-30T00:00:28;99368.00;;;31.41;19.01
54816;BME280;40715;55.752;37.884;2023-04-30T00:02:55;99364.28;;;31.42;18.82
54816;BME280;40715;55.752;37.884;2023-04-30T00:05:22;99375.34;;;31.40;19.03
54816;BME280;40715;55.752;37.884;2023-04-30T00:07:49;99375.34;;;31.40;18.89
54816;BME280;40715;55.752;37.884;2023-04-30T00:10:16;99367.16;;;31.40;19.13
54816;BME280;40715;55.752;37.884;2023-04-30T00:12:43;99372.63;;;31.40;18.84
54816;BME280;40715;55.752;37.884;2023-04-30T00:15:10;99377.22;;;31.40;18.63
54816;BME280;40715;55.752;37.884;2023-04-30T00:17:38;99378.06;;;31.40;18.98
54816;BME280;40715;55.752;37.884;2023-04-30T00:20:05;99380.09;;;31.38;18.83
54816;BME280;40715;55.752;37.884;2023-04-30T00:22:32;99380.09;;;31.38;18.97
54816;BME280;40715;55.752;37.884;2023-04-30T00:25:00;99387.41;;;31.38;18.71
54816;BME280;40715;55.752;37.884;2023-04-30T00:27:29;99385.53;;;31.38;18.68
54816;BME280;40715;55.752;37.884;2023-04-30T00:29:58;99383.69;;;31.39;18.69
54816;BME280;40715;55.752;37.884;2023-04-30T00:32:25;99370.94;;;31.31;18.86
54816;BME280;40715;55.752;37.884;2023-04-30T00:34:52;99381.13;;;31.37;18.77
54816;BME280;40715;55.752;37.884;2023-04-30T00:37:19;99389.31;;;31.37;18.53
54816;BME280;40715;55.752;37.884;2023-04-30T00:39:46;99391.16;;;31.37;18.83
54816;BME280;40715;55.752;37.884;2023-04-30T00:42:13;99387.41;;;31.38;18.76
54816;BME280;40715;55.752;37.884;2023-04-30T00:44:40;99389.47;;;31.36;18.40
54816;BME280;40715;55.752;37.884;2023-04-30T00:47:09;99394.75;;;31.37;18.83
54816;BME280;40715;55.752;37.884;2023-04-30T00:49:36;99395.94;;;31.35;18.47
54816;BME280;40715;55.752;37.884;2023-04-30T00:52:04;99389.81;;;31.32;18.64
54816;BME280;40715;55.752;37.884;2023-04-30T00:54:31;99382.50;;;31.33;18.89
54816;BME280;40715;55.752;37.884;2023-04-30T00:56:58;99393.22;;;31.35;18.84
54816;BME280;40715;55.752;37.884;2023-04-30T00:59:26;99383.53;;;31.32;18.44
54816;BME280;40715;55.752;37.884;2023-04-30T01:01:53;99388.78;;;31.33;18.42
54816;BME280;40715;55.752;37.884;2023-04-30T01:04:20;99390.69;;;31.33;18.29
54816;BME280;40715;55.752;37.884;2023-04-30T01:06:47;99386.94;;;31.34;18.71
54816;BME280;40715;55.752;37.884;2023-04-30T01:09:15;99387.94;;;31.33;18.40
54816;BME280;40715;55.752;37.884;2023-04-30T01:17:37;99388.78;;;31.42;18.37
54816;BME280;40715;55.752;37.884;2023-04-30T01:20:06;99389.81;;;31.32;18.47
54816;BME280;40715;55.752;37.884;2023-04-30T01:25:44;99398.47;;;31.44;18.33
54816;BME280;40715;55.752;37.884;2023-04-30T01:28:18;99397.97;;;31.32;18.16
54816;BME280;40715;55.752;37.884;2023-04-30T01:30:46;99393.94;;;31.28;18.22
54816;BME280;40715;55.752;37.884;2023-04-30T01:33:13;99395.78;;;31.28;18.45
54816;BME280;40715;55.752;37.884;2023-04-30T01:35:46;99395.78;;;31.28;18.45
54816;BME280;40715;55.752;37.884;2023-04-30T01:46:37;99393.75;;;31.30;18.39
54816;BME280;40715;55.752;37.884;2023-04-30T01:49:28;99400.69;;;31.41;18.49
54816;BME280;40715;55.752;37.884;2023-04-30T01:52:41;99394.88;;;31.44;18.13
54816;BME280;40715;55.752;37.884;2023-04-30T01:55:27;99396.44;;;31.38;18.24
54816;BME280;40715;55.752;37.884;2023-04-30T01:57:58;99399.03;;;31.23;18.49
54816;BME280;40715;55.752;37.884;2023-04-30T02:00:28;99398.50;;;31.20;18.22
54816;BME280;40715;55.752;37.884;2023-04-30T02:02:56;99395.13;;;31.18;18.45
54816;BME280;40715;55.752;37.884;2023-04-30T02:05:24;99400.22;;;31.21;18.61
54816;BME280;40715;55.752;37.884;2023-04-30T02:07:52;99390.53;;;31.18;18.51
54816;BME280;40715;55.752;37.884;2023-04-30T02:10:24;99378.63;;;31.19;18.49
54816;BME280;40715;55.752;37.884;2023-04-30T02:12:52;99381.16;;;31.21;18.29
54816;BME280;40715;55.752;37.884;2023-04-30T02:15:19;99376.41;;;31.23;18.31
54816;BME280;40715;55.752;37.884;2023-04-30T02:17:47;99379.97;;;31.23;18.21
54816;BME280;40715;55.752;37.884;2023-04-30T02:20:14;99368.44;;;31.21;18.24
54816;BME280;40715;55.752;37.884;2023-04-30T02:22:41;99375.56;;;31.22;18.38
54816;BME280;40715;55.752;37.884;2023-04-30T02:25:08;99378.28;;;31.22;18.04
54816;BME280;40715;55.752;37.884;2023-04-30T02:27:37;99367.38;;;31.22;18.35
54816;BME280;40715;55.752;37.884;2023-04-30T02:30:05;99373.19;;;31.19;18.57
54816;BME280;40715;55.752;37.884;2023-04-30T02:32:32;99375.06;;;31.19;18.60
54816;BME280;40715;55.752;37.884;2023-04-30T02:35:00;99360.78;;;31.17;18.36
54816;BME280;40715;55.752;37.884;2023-04-30T02:37:29;99361.47;;;31.19;18.40
54816;BME280;40715;55.752;37.884;2023-04-30T02:39:57;99359.75;;;31.18;18.74
54816;BME280;40715;55.752;37.884;2023-04-30T02:42:24;99358.56;;;31.20;18.88
54816;BME280;40715;55.752;37.884;2023-04-30T02:44:51;99355.66;;;31.22;18.93
54816;BME280;40715;55.752;37.884;2023-04-30T02:47:18;99356.31;;;31.24;18.49
54816;BME280;40715;55.752;37.884;2023-04-30T02:49:45;99348.34;;;31.22;18.68
54816;BME280;40715;55.752;37.884;2023-04-30T02:52:12;99344.94;;;31.28;18.86
54816;BME280;40715;55.752;37.884;2023-04-30T02:54:38;99352.06;;;31.29;18.68
54816;BME280;40715;55.752;37.884;2023-04-30T02:57:05;99351.03;;;31.30;18.97
54816;BME280;40715;55.752;37.884;2023-04-30T02:59:33;99348.97;;;31.32;19.03
54816;BME280;40715;55.752;37.884;2023-04-30T03:02:00;99349.66;;;31.35;18.89
54816;BME280;40715;55.752;37.884;2023-04-30T03:04:27;99353.91;;;31.37;19.16
54816;BME280;40715;55.752;37.884;2023-04-30T03:06:54;99349.31;;;31.38;19.37
54816;BME280;40715;55.752;37.884;2023-04-30T03:09:21;99349.13;;;31.39;19.27
54816;BME280;40715;55.752;37.884;2023-04-30T03:11:48;99358.00;;;31.41;19.49
54816;BME280;40715;55.752;37.884;2023-04-30T03:14:15;99361.72;;;31.40;19.71
54816;BME280;40715;55.752;37.884;2023-04-30T03:16:42;99356.94;;;31.42;19.38
54816;BME280;40715;55.752;37.884;2023-04-30T03:19:09;99359.31;;;31.45;19.37
54816;BME280;40715;55.752;37.884;2023-04-30T03:21:36;99359.16;;;31.47;19.45
54816;BME280;40715;55.752;37.884;2023-04-30T03:24:03;99357.28;;;31.47;19.39
54816;BME280;40715;55.752;37.884;2023-04-30T03:26:31;99359.81;;;31.49;19.41
54816;BME280;40715;55.752;37.884;2023-04-30T03:28:58;99357.09;;;31.49;19.47
54816;BME280;40715;55.752;37.884;2023-04-30T03:31:26;99358.44;;;31.53;19.68
54816;BME280;40715;55.752;37.884;2023-04-30T03:33:53;99351.97;;;31.54;19.87
54816;BME280;40715;55.752;37.884;2023-04-30T03:36:20;99346.72;;;31.53;19.84
54816;BME280;40715;55.752;37.884;2023-04-30T03:38:47;99347.19;;;31.56;19.65
54816;BME280;40715;55.752;37.884;2023-04-30T03:41:16;99330.88;;;31.56;19.93
54816;BME280;40715;55.752;37.884;2023-04-30T03:43:43;99331.69;;;31.57;19.84
54816;BME280;40715;55.752;37.884;2023-04-30T03:46:10;99335.81;;;31.61;19.96
54816;BME280;40715;55.752;37.884;2023-04-30T03:48:38;99325.78;;;31.61;19.75
54816;BME280;40715;55.752;37.884;2023-04-30T03:51:05;99331.03;;;31.63;19.99
54816;BME280;40715;55.752;37.884;2023-04-30T03:53:32;99321.00;;;31.63;19.68
54816;BME280;40715;55.752;37.884;2023-04-30T03:55:59;99323.53;;;31.65;19.92
54816;BME280;40715;55.752;37.884;2023-04-30T03:58:26;99326.06;;;31.66;19.62
54816;BME280;40715;55.752;37.884;2023-04-30T04:00:53;99324.22;;;31.67;19.59
54816;BME280;40715;55.752;37.884;2023-04-30T04:03:21;99324.03;;;31.69;19.55
54816;BME280;40715;55.752;37.884;2023-04-30T04:05:48;99319.59;;;31.67;19.94
54816;BME280;40715;55.752;37.884;2023-04-30T04:08:15;99316.03;;;31.67;19.81
54816;BME280;40715;55.752;37.884;2023-04-30T04:10:42;99321.78;;;31.72;19.37
54816;BME280;40715;55.752;37.884;2023-04-30T04:13:09;99316.34;;;31.72;19.46
54816;BME280;40715;55.752;37.884;2023-04-30T04:15:37;99316.16;;;31.74;19.50
54816;BME280;40715;55.752;37.884;2023-04-30T04:18:04;99319.75;;;31.74;19.63
54816;BME280;40715;55.752;37.884;2023-04-30T04:20:33;99324.84;;;31.77;19.62
54816;BME280;40715;55.752;37.884;2023-04-30T04:23:00;99322.13;;;31.77;19.49
54816;BME280;40715;55.752;37.884;2023-04-30T04:25:28;99323.81;;;31.78;19.31
54816;BME280;40715;55.752;37.884;2023-04-30T04:27:55;99317.31;;;31.79;19.37
54816;BME280;40715;55.752;37.884;2023-04-30T04:30:22;99314.78;;;31.78;19.54
54816;BME280;40715;55.752;37.884;2023-04-30T04:32:49;99312.56;;;31.81;19.16
54816;BME280;40715;55.752;37.884;2023-04-30T04:35:19;99308.63;;;31.84;19.03
54816;BME280;40715;55.752;37.884;2023-04-30T04:37:46;99316.81;;;31.84;19.19
54816;BME280;40715;55.752;37.884;2023-04-30T04:40:13;99315.09;;;31.83;18.93
54816;BME280;40715;55.752;37.884;2023-04-30T04:42:40;99304.56;;;31.80;18.82
54816;BME280;40715;55.752;37.884;2023-04-30T04:45:08;99309.84;;;31.81;19.24
54816;BME280;40715;55.752;37.884;2023-04-30T04:47:35;99306.25;;;31.81;20.03
54816;BME280;40715;55.752;37.884;2023-04-30T04:50:04;99310.66;;;31.82;20.38
54816;BME280;40715;55.752;37.884;2023-04-30T04:52:31;99310.50;;;31.83;21.12
54816;BME280;40715;55.752;37.884;2023-04-30T04:54:58;99309.66;;;31.83;21.00
54816;BME280;40715;55.752;37.884;2023-04-30T04:57:25;99303.59;;;31.73;21.52
54816;BME280;40715;55.752;37.884;2023-04-30T04:59:52;99314.41;;;31.81;21.93
54816;BME280;40715;55.752;37.884;2023-04-30T05:02:19;99315.66;;;31.78;22.43
54816;BME280;40715;55.752;37.884;2023-04-30T05:04:49;99312.91;;;31.78;22.49
54816;BME280;40715;55.752;37.884;2023-04-30T05:07:16;99310.53;;;31.75;22.61
54816;BME280;40715;55.752;37.884;2023-04-30T05:09:44;99308.69;;;31.76;22.62
54816;BME280;40715;55.752;37.884;2023-04-30T05:12:14;99308.50;;;31.77;22.68
54816;BME280;40715;55.752;37.884;2023-04-30T05:14:41;99311.41;;;31.76;23.16
54816;BME280;40715;55.752;37.884;2023-04-30T05:17:09;99307.16;;;31.73;23.15
54816;BME280;40715;55.752;37.884;2023-04-30T05:19:36;99298.97;;;31.73;23.05
54816;BME280;40715;55.752;37.884;2023-04-30T05:22:05;99294.56;;;31.72;23.25
54816;BME280;40715;55.752;37.884;2023-04-30T05:24:32;99298.31;;;31.71;23.65
54816;BME280;40715;55.752;37.884;2023-04-30T05:27:00;99297.28;;;31.72;23.51
54816;BME280;40715;55.752;37.884;2023-04-30T05:29:31;99300.19;;;31.71;24.02
54816;BME280;40715;55.752;37.884;2023-04-30T05:31:58;99289.66;;;31.67;23.89
54816;BME280;40715;55.752;37.884;2023-04-30T05:34:25;99289.66;;;31.67;24.06
54816;BME280;40715;55.752;37.884;2023-04-30T05:36:52;99291.34;;;31.69;24.46
54816;BME280;40715;55.752;37.884;2023-04-30T05:39:19;99294.25;;;31.67;24.45
54816;BME280;40715;55.752;37.884;2023-04-30T05:41:46;99287.28;;;31.64;24.40
54816;BME280;40715;55.752;37.884;2023-04-30T05:44:14;99290.00;;;31.64;24.44
54816;BME280;40715;55.752;37.884;2023-04-30T05:46:41;99281.53;;;31.59;24.32
54816;BME280;40715;55.752;37.884;2023-04-30T05:49:08;99281.16;;;31.62;24.76
54816;BME280;40715;55.752;37.884;2023-04-30T05:51:35;99276.22;;;31.66;24.52
54816;BME280;40715;55.752;37.884;2023-04-30T05:54:02;99270.59;;;31.67;24.81
54816;BME280;40715;55.752;37.884;2023-04-30T05:56:29;99281.31;;;31.69;24.56
54816;BME280;40715;55.752;37.884;2023-04-30T05:58:56;99277.56;;;31.70;24.49
54816;BME280;40715;55.752;37.884;2023-04-30T06:01:24;99285.53;;;31.72;24.93
54816;BME280;40715;55.752;37.884;2023-04-30T06:03:51;99280.56;;;31.75;24.85
54816;BME280;40715;55.752;37.884;2023-04-30T06:06:18;99294.03;;;31.77;24.75
54816;BME280;40715;55.752;37.884;2023-04-30T06:08:45;99293.00;;;31.78;25.22
54816;BME280;40715;55.752;37.884;2023-04-30T06:11:12;99300.97;;;31.79;24.80
54816;BME280;40715;55.752;37.884;2023-04-30T06:13:40;99299.13;;;31.80;24.87
54816;BME280;40715;55.752;37.884;2023-04-30T06:16:07;99307.28;;;31.80;24.94
54816;BME280;40715;55.752;37.884;2023-04-30T06:18:34;99302.69;;;31.80;25.39
54816;BME280;40715;55.752;37.884;2023-04-30T06:21:01;99300.78;;;31.81;25.52
54816;BME280;40715;55.752;37.884;2023-04-30T06:23:29;99298.44;;;31.78;25.22
54816;BME280;40715;55.752;37.884;2023-04-30T06:25:56;99299.97;;;31.80;25.28
54816;BME280;40715;55.752;37.884;2023-04-30T06:28:23;99299.59;;;31.83;25.27
54816;BME280;40715;55.752;37.884;2023-04-30T06:30:50;99295.34;;;31.81;25.44
54816;BME280;40715;55.752;37.884;2023-04-30T06:33:17;99295.34;;;31.81;25.71
54816;BME280;40715;55.752;37.884;2023-04-30T06:35:45;99292.63;;;31.81;25.49
54816;BME280;40715;55.752;37.884;2023-04-30T06:38:13;99298.06;;;31.81;25.50
54816;BME280;40715;55.752;37.884;2023-04-30T06:40:40;99297.06;;;31.82;25.99
54816;BME280;40715;55.752;37.884;2023-04-30T06:43:07;99283.16;;;31.77;25.72
54816;BME280;40715;55.752;37.884;2023-04-30T06:45:34;99275.31;;;31.74;26.14
54816;BME280;40715;55.752;37.884;2023-04-30T06:48:01;99286.88;;;31.76;26.27
54816;BME280;40715;55.752;37.884;2023-04-30T06:50:28;99287.53;;;31.78;26.02
54816;BME280;40715;55.752;37.884;2023-04-30T06:52:55;99283.81;;;31.79;25.95
54816;BME280;40715;55.752;37.884;2023-04-30T06:55:23;99285.19;;;31.75;26.11
54816;BME280;40715;55.752;37.884;2023-04-30T06:57:50;99278.41;;;31.71;26.49
54816;BME280;40715;55.752;37.884;2023-04-30T07:00:17;99271.75;;;31.73;26.54
54816;BME280;40715;55.752;37.884;2023-04-30T07:02:44;99275.13;;;31.75;26.18
54816;BME280;40715;55.752;37.884;2023-04-30T07:05:13;99261.50;;;31.75;26.18
54816;BME280;40715;55.752;37.884;2023-04-30T07:07:41;99258.31;;;31.72;26.44
54816;BME280;40715;55.752;37.884;2023-04-30T07:10:09;99260.53;;;31.68;26.10
54816;BME280;40715;55.752;37.884;2023-04-30T07:12:36;99261.78;;;31.65;26.49
54816;BME280;40715;55.752;37.884;2023-04-30T07:15:03;99257.16;;;31.66;26.53
54816;BME280;40715;55.752;37.884;2023-04-30T07:17:31;99256.59;;;31.71;26.71
54816;BME280;40715;55.752;37.884;2023-04-30T07:19:58;99250.78;;;31.74;26.44
54816;BME280;40715;55.752;37.884;2023-04-30T07:22:25;99248.75;;;31.76;26.43
54816;BME280;40715;55.752;37.884;2023-04-30T07:24:54;99252.31;;;31.76;26.56
54816;BME280;40715;55.752;37.884;2023-04-30T07:27:21;99247.84;;;31.83;26.79
54816;BME280;40715;55.752;37.884;2023-04-30T07:29:48;99242.03;;;31.87;26.53
54816;BME280;40715;55.752;37.884;2023-04-30T07:32:15;99230.13;;;31.88;26.82
54816;BME280;40715;55.752;37.884;2023-04-30T07:34:42;99226.19;;;31.90;26.48
54816;BME280;40715;55.752;37.884;2023-04-30T07:37:09;99221.38;;;31.92;26.53
54816;BME280;40715;55.752;37.884;2023-04-30T07:39:37;99220.53;;;31.92;26.44
54816;BME280;40715;55.752;37.884;2023-04-30T07:42:04;99218.66;;;31.92;26.79
54816;BME280;40715;55.752;37.884;2023-04-30T07:44:32;99223.41;;;31.98;27.01
54816;BME280;40715;55.752;37.884;2023-04-30T07:46:59;99215.88;;;32.00;26.67
54816;BME280;40715;55.752;37.884;2023-04-30T07:49:27;99191.91;;;31.96;26.89
54816;BME280;40715;55.752;37.884;2023-04-30T07:51:54;99191.66;;;32.06;27.04
54816;BME280;40715;55.752;37.884;2023-04-30T07:54:21;99190.44;;;32.08;26.96
54816;BME280;40715;55.752;37.884;2023-04-30T07:56:49;99182.75;;;32.12;26.65
54816;BME280;40715;55.752;37.884;2023-04-30T07:59:20;99175.28;;;32.14;26.82
54816;BME280;40715;55.752;37.884;2023-04-30T08:01:47;99164.00;;;32.17;27.13
54816;BME280;40715;55.752;37.884;2023-04-30T08:04:14;99144.13;;;32.08;27.04
54816;BME280;40715;55.752;37.884;2023-04-30T08:06:41;99163.63;;;32.20;26.92
54816;BME280;40715;55.752;37.884;2023-04-30T08:09:08;99160.06;;;32.20;27.03
54816;BME280;40715;55.752;37.884;2023-04-30T08:11:35;99154.44;;;32.21;27.29
54816;BME280;40715;55.752;37.884;2023-04-30T08:14:02;99142.66;;;32.21;26.75
54816;BME280;40715;55.752;37.884;2023-04-30T08:16:30;99139.38;;;32.25;27.07
54816;BME280;40715;55.752;37.884;2023-04-30T08:18:57;99134.59;;;32.27;27.13
54816;BME280;40715;55.752;37.884;2023-04-30T08:21:25;99128.13;;;32.28;27.17
54816;BME280;40715;55.752;37.884;2023-04-30T08:23:56;99116.84;;;32.31;27.07
54816;BME280;40715;55.752;37.884;2023-04-30T08:26:24;99109.03;;;32.28;26.96
54816;BME280;40715;55.752;37.884;2023-04-30T08:28:51;99104.22;;;32.30;26.84
54816;BME280;40715;55.752;37.884;2023-04-30T08:31:18;99100.47;;;32.31;25.96
54816;BME280;40715;55.752;37.884;2023-04-30T08:33:45;99093.72;;;32.27;25.74
54816;BME280;40715;55.752;37.884;2023-04-30T08:36:12;99082.44;;;32.15;25.19
54816;BME280;40715;55.752;37.884;2023-04-30T08:38:39;99103.00;;;32.18;25.34
54816;BME280;40715;55.752;37.884;2023-04-30T08:41:13;99082.44;;;32.15;25.30
54816;BME280;40715;55.752;37.884;2023-04-30T08:43:42;99091.13;;;32.11;24.96
54816;BME280;40715;55.752;37.884;2023-04-30T08:46:11;99089.63;;;32.08;25.42
54816;BME280;40715;55.752;37.884;2023-04-30T08:48:42;99073.44;;;32.07;25.48
54816;BME280;40715;55.752;37.884;2023-04-30T08:51:10;99073.00;;;32.03;25.64
54816;BME280;40715;55.752;37.884;2023-04-30T08:53:37;99082.38;;;32.00;25.62
54816;BME280;40715;55.752;37.884;2023-04-30T08:56:05;99078.16;;;31.98;25.96
54816;BME280;40715;55.752;37.884;2023-04-30T08:58:32;99075.59;;;31.96;25.90
54816;BME280;40715;55.752;37.884;2023-04-30T09:01:00;99066.97;;;31.93;25.78
54816;BME280;40715;55.752;37.884;2023-04-30T09:03:27;99064.44;;;31.91;25.87
54816;BME280;40715;55.752;37.884;2023-04-30T09:05:54;99042.84;;;31.90;26.17
54816;BME280;40715;55.752;37.884;2023-04-30T09:08:44;99041.50;;;32.00;26.07
54816;BME280;40715;55.752;37.884;2023-04-30T09:11:26;99033.44;;;31.92;26.23
54816;BME280;40715;55.752;37.884;2023-04-30T09:13:55;99025.56;;;31.82;26.22
54816;BME280;40715;55.752;37.884;2023-04-30T09:16:28;99034.06;;;31.79;25.96
54816;BME280;40715;55.752;37.884;2023-04-30T09:18:59;99031.09;;;31.89;25.62
54816;BME280;40715;55.752;37.884;2023-04-30T09:21:34;99019.06;;;31.83;26.01
54816;BME280;40715;55.752;37.884;2023-04-30T09:24:03;99028.53;;;31.88;26.00
54816;BME280;40715;55.752;37.884;2023-04-30T09:26:36;99024.81;;;31.89;26.18
54816;BME280;40715;55.752;37.884;2023-04-30T09:29:04;99024.81;;;31.89;26.07
54816;BME280;40715;55.752;37.884;2023-04-30T09:31:35;99004.22;;;31.86;25.92
54816;BME280;40715;55.752;37.884;2023-04-30T09:34:04;99014.34;;;31.92;25.96
54816;BME280;40715;55.752;37.884;2023-04-30T09:36:32;99018.97;;;31.92;26.02
54816;BME280;40715;55.752;37.884;2023-04-30T09:39:09;99013.53;;;31.92;25.84
54816;BME280;40715;55.752;37.884;2023-04-30T09:41:43;99013.72;;;31.90;26.16
54816;BME280;40715;55.752;37.884;2023-04-30T09:44:30;98995.69;;;32.04;26.21
54816;BME280;40715;55.752;37.884;2023-04-30T09:46:58;98994.56;;;31.98;26.08
54816;BME280;40715;55.752;37.884;2023-04-30T09:49:25;98992.38;;;31.94;26.36
54816;BME280;40715;55.752;37.884;2023-04-30T09:51:57;98987.78;;;31.94;26.22
54816;BME280;40715;55.752;37.884;2023-04-30T09:54:29;98991.16;;;31.96;25.98
54816;BME280;40715;55.752;37.884;2023-04-30T09:56:58;98982.78;;;31.98;26.07
54816;BME280;40715;55.752;37.884;2023-04-30T09:59:35;98989.00;;;32.07;26.30
54816;BME280;40715;55.752;37.884;2023-04-30T10:02:05;98984.13;;;32.02;26.22
54816;BME280;40715;55.752;37.884;2023-04-30T10:04:37;98975.75;;;32.04;26.21
54816;BME280;40715;55.752;37.884;2023-04-30T10:07:08;98962.69;;;31.99;26.34
54816;BME280;40715;55.752;37.884;2023-04-30T10:09:49;98968.81;;;32.01;25.97
54816;BME280;40715;55.752;37.884;2023-04-30T10:12:25;98968.44;;;32.04;26.28
54816;BME280;40715;55.752;37.884;2023-04-30T10:15:09;98958.66;;;32.10;25.92
54816;BME280;40715;55.752;37.884;2023-04-30T10:17:37;98964.59;;;31.98;26.35
54816;BME280;40715;55.752;37.884;2023-04-30T10:20:10;98972.84;;;31.90;26.05
54816;BME280;40715;55.752;37.884;2023-04-30T10:22:39;98981.47;;;31.94;26.15
54816;BME280;40715;55.752;37.884;2023-04-30T10:25:08;98989.00;;;31.92;25.95
54816;BME280;40715;55.752;37.884;2023-04-30T10:27:39;98992.22;;;31.95;26.10
54816;BME280;40715;55.752;37.884;2023-04-30T10:30:09;98985.06;;;31.94;26.28
54816;BME280;40715;55.752;37.884;2023-04-30T10:35:20;98989.38;;;32.04;26.38
54816;BME280;40715;55.752;37.884;2023-04-30T10:37:56;98993.59;;;32.06;26.37
54816;BME280;40715;55.752;37.884;2023-04-30T10:40:25;98987.03;;;32.00;26.34
54816;BME280;40715;55.752;37.884;2023-04-30T10:42:53;98980.94;;;31.98;26.48
54816;BME280;40715;55.752;37.884;2023-04-30T10:45:37;98984.22;;;32.09;26.56
54816;BME280;40715;55.752;37.884;2023-04-30T10:48:05;98988.44;;;31.96;26.50
54816;BME280;40715;55.752;37.884;2023-04-30T10:50:39;98983.19;;;31.95;26.33
54816;BME280;40715;55.752;37.884;2023-04-30T10:53:18;98994.19;;;32.01;26.35
54816;BME280;40715;55.752;37.884;2023-04-30T10:55:46;98984.72;;;32.64;25.51
54816;BME280;40715;55.752;37.884;2023-04-30T10:58:30;98979.72;;;32.01;26.61
54816;BME280;40715;55.752;37.884;2023-04-30T11:01:14;98981.97;;;31.97;26.59
54816;BME280;40715;55.752;37.884;2023-04-30T11:04:09;98980.25;;;31.96;26.44
54816;BME280;40715;55.752;37.884;2023-04-30T11:09:41;98974.38;;;31.93;26.44
54816;BME280;40715;55.752;37.884;2023-04-30T11:12:14;98979.59;;;31.79;26.81
54816;BME280;40715;55.752;37.884;2023-04-30T11:14:43;98959.78;;;31.71;26.69
54816;BME280;40715;55.752;37.884;2023-04-30T11:17:12;98956.03;;;31.72;26.57
54816;BME280;40715;55.752;37.884;2023-04-30T11:19:49;98944.66;;;31.68;26.38
54816;BME280;40715;55.752;37.884;2023-04-30T11:22:18;98944.84;;;31.66;26.11
54816;BME280;40715;55.752;37.884;2023-04-30T11:24:50;98935.03;;;31.65;26.11
54816;BME280;40715;55.752;37.884;2023-04-30T11:27:25;98928.13;;;31.70;26.00
54816;BME280;40715;55.752;37.884;2023-04-30T11:29:54;98912.00;;;31.68;26.27
54816;BME280;40715;55.752;37.884;2023-04-30T11:32:24;98910.03;;;31.62;26.05
54816;BME280;40715;55.752;37.884;2023-04-30T11:34:53;98898.50;;;31.60;26.07
54816;BME280;40715;55.752;37.884;2023-04-30T11:37:28;98905.81;;;31.59;26.49
54816;BME280;40715;55.752;37.884;2023-04-30T11:40:04;98891.81;;;31.62;26.09
54816;BME280;40715;55.752;37.884;2023-04-30T11:42:33;98888.63;;;31.59;26.33
54816;BME280;40715;55.752;37.884;2023-04-30T11:45:09;98874.69;;;31.54;26.25
54816;BME280;40715;55.752;37.884;2023-04-30T11:47:57;98892.19;;;31.74;25.91
54816;BME280;40715;55.752;37.884;2023-04-30T11:50:27;98882.66;;;31.55;26.31
54816;BME280;40715;55.752;37.884;2023-04-30T11:52:59;98896.03;;;31.50;26.12
54816;BME280;40715;55.752;37.884;2023-04-30T11:55:31;98892.63;;;31.48;26.51
54816;BME280;40715;55.752;37.884;2023-04-30T11:57:58;98895.72;;;31.45;26.80
54816;BME280;40715;55.752;37.884;2023-04-30T12:00:28;98890.84;;;31.40;26.61
54816;BME280;40715;55.752;37.884;2023-04-30T12:02:56;98884.38;;;31.41;26.64
54816;BME280;40715;55.752;37.884;2023-04-30T12:05:26;98868.06;;;31.41;27.10
54816;BME280;40715;55.752;37.884;2023-04-30T12:08:02;98869.34;;;31.45;27.04
54816;BME280;40715;55.752;37.884;2023-04-30T12:10:37;98867.88;;;31.43;27.12
54816;BME280;40715;55.752;37.884;2023-04-30T12:13:05;98864.66;;;31.39;26.70
54816;BME280;40715;55.752;37.884;2023-04-30T12:15:32;98865.53;;;31.40;26.87
54816;BME280;40715;55.752;37.884;2023-04-30T12:18:10;98858.00;;;31.42;26.89
54816;BME280;40715;55.752;37.884;2023-04-30T12:20:39;98869.66;;;31.36;27.28
54816;BME280;40715;55.752;37.884;2023-04-30T12:23:07;98862.50;;;31.35;27.04
54816;BME280;40715;55.752;37.884;2023-04-30T12:25:43;98862.81;;;31.40;27.13
54816;BME280;40715;55.752;37.884;2023-04-30T12:28:11;98873.50;;;31.41;26.91
54816;BME280;40715;55.752;37.884;2023-04-30T12:30:38;98877.44;;;31.39;26.85
54816;BME280;40715;55.752;37.884;2023-04-30T12:33:05;98874.03;;;31.37;27.11
54816;BME280;40715;55.752;37.884;2023-04-30T12:35:35;98882.38;;;31.35;26.85
54816;BME280;40715;55.752;37.884;2023-04-30T12:38:06;98879.41;;;31.30;26.74
54816;BME280;40715;55.752;37.884;2023-04-30T12:40:35;98889.41;;;31.29;26.71
54816;BME280;40715;55.752;37.884;2023-04-30T12:43:04;98891.69;;;31.26;26.12
54816;BME280;40715;55.752;37.884;2023-04-30T12:45:51;98886.81;;;31.36;25.96
54816;BME280;40715;55.752;37.884;2023-04-30T12:48:20;98882.84;;;31.24;26.12
54816;BME280;40715;55.752;37.884;2023-04-30T12:51:08;98882.19;;;31.37;25.87
54816;BME280;40715;55.752;37.884;2023-04-30T12:53:45;98878.91;;;31.26;25.55
54816;BME280;40715;55.752;37.884;2023-04-30T12:56:14;98878.47;;;31.23;25.79
54816;BME280;40715;55.752;37.884;2023-04-30T12:58:44;98878.81;;;31.20;25.63
54816;BME280;40715;55.752;37.884;2023-04-30T13:01:16;98881.53;;;31.20;25.60
54816;BME280;40715;55.752;37.884;2023-04-30T13:03:44;98874.41;;;31.19;25.56
54816;BME280;40715;55.752;37.884;2023-04-30T13:06:11;98857.97;;;31.12;25.00
54816;BME280;40715;55.752;37.884;2023-04-30T13:08:38;98869.50;;;31.14;24.93
54816;BME280;40715;55.752;37.884;2023-04-30T13:11:22;98877.50;;;31.15;24.79
54816;BME280;40715;55.752;37.884;2023-04-30T13:13:49;98885.69;;;31.15;25.19
54816;BME280;40715;55.752;37.884;2023-04-30T13:16:16;98876.00;;;31.13;25.11
54816;BME280;40715;55.752;37.884;2023-04-30T13:18:44;98875.31;;;31.11;24.50
54816;BME280;40715;55.752;37.884;2023-04-30T13:21:11;98878.03;;;31.11;24.49
54816;BME280;40715;55.752;37.884;2023-04-30T13:23:38;98867.53;;;31.08;24.61